Time;durP1;ratioP1;P1;durP2;ratioP2;P2;SDS_P1;SDS_P2;PMS_P1;PMS_P2;Temp;Humidity;BMP_temperature;BMP_pressure;BME280_temperature;BME280_humidity;BME280_pressure;Samples;Min_cycle;Max_cycle;Signal;HPM_P1;HPM_P2
2023/02/04 05:00:36;;;;;;;0.30;0.30;;;3.50;99.90;;;;;;5825335;23;20247;-69
2023/02/04 05:03:03;;;;;;;1.63;1.02;;;3.50;99.90;;;;;;4916524;29;20588;-69
2023/02/04 05:05:30;;;;;;;0.90;0.90;;;3.50;99.90;;;;;;4920679;29;20213;-68
2023/02/04 05:07:57;;;;;;;0.82;0.82;;;3.50;99.90;;;;;;4911499;29;20214;-68
2023/02/04 05:10:24;;;;;;;0.60;0.60;;;3.50;99.90;;;;;;4911788;29;20203;-69
2023/02/04 05:12:50;;;;;;;0.93;0.93;;;3.40;99.90;;;;;;4913618;29;20622;-69
2023/02/04 05:15:17;;;;;;;0.47;0.45;;;3.40;99.90;;;;;;4910068;29;20207;-67
2023/02/04 05:17:45;;;;;;;0.88;0.88;;;3.40;99.90;;;;;;4920305;29;20210;-69
2023/02/04 05:20:12;;;;;;;1.17;0.88;;;3.40;99.90;;;;;;4926253;29;20660;-66
2023/02/04 05:22:39;;;;;;;1.88;1.75;;;3.40;99.90;;;;;;4930546;29;20214;-66
2023/02/04 05:25:06;;;;;;;0.30;0.30;;;3.40;99.90;;;;;;4925333;29;20246;-67
2023/02/04 05:27:33;;;;;;;1.38;0.50;;;3.40;99.90;;;;;;4920899;29;20250;-66
2023/02/04 05:30:00;;;;;;;0.68;0.68;;;3.40;99.90;;;;;;4916423;29;20246;-67
2023/02/04 05:32:26;;;;;;;1.00;0.85;;;3.40;99.90;;;;;;4922741;29;20226;-68
2023/02/04 05:34:55;;;;;;;0.75;0.75;;;3.40;99.90;;;;;;4919013;29;20221;-66
2023/02/04 05:37:21;;;;;;;0.60;0.60;;;3.40;99.90;;;;;;4912692;29;20303;-67
2023/02/04 05:39:48;;;;;;;1.55;0.80;;;3.40;99.90;;;;;;4919669;29;20214;-66
2023/02/04 05:42:15;;;;;;;0.73;0.73;;;3.40;99.90;;;;;;4922094;29;20227;-69
2023/02/04 05:44:41;;;;;;;0.45;0.45;;;3.40;99.90;;;;;;4920184;29;20207;-66
2023/02/04 05:47:08;;;;;;;0.75;0.75;;;3.40;99.90;;;;;;4914852;29;20226;-68
2023/02/04 05:49:35;;;;;;;2.60;1.50;;;3.40;99.90;;;;;;4922385;29;20222;-68
2023/02/04 05:52:04;;;;;;;1.42;0.70;;;3.40;99.90;;;;;;4919510;29;20252;-67
2023/02/04 05:54:31;;;;;;;1.80;1.75;;;3.50;99.90;;;;;;4914655;29;20207;-67
2023/02/04 05:56:57;;;;;;;1.05;0.95;;;3.50;99.90;;;;;;4919478;29;20207;-67
2023/02/04 05:59:24;;;;;;;0.20;0.20;;;3.50;99.90;;;;;;4923920;29;20223;-68
2023/02/04 06:01:51;;;;;;;0.68;0.68;;;3.50;99.90;;;;;;4917290;29;20243;-67
2023/02/04 06:04:18;;;;;;;5.00;1.02;;;3.40;99.90;;;;;;4917849;29;20672;-67
2023/02/04 06:06:45;;;;;;;1.35;1.35;;;3.40;99.90;;;;;;4916549;29;20245;-68
2023/02/04 06:09:13;;;;;;;0.17;0.17;;;3.40;99.90;;;;;;4923291;29;20558;-67
2023/02/04 06:11:40;;;;;;;1.50;1.50;;;3.40;99.90;;;;;;4920700;29;20222;-67
2023/02/04 06:14:06;;;;;;;0.75;0.75;;;3.30;99.90;;;;;;4923252;29;20234;-67
2023/02/04 06:16:33;;;;;;;1.20;1.20;;;3.30;99.90;;;;;;4924881;29;20620;-67
2023/02/04 06:19:00;;;;;;;0.73;0.50;;;3.30;99.90;;;;;;4922365;29;20309;-67
2023/02/04 06:21:27;;;;;;;0.70;0.70;;;3.20;99.90;;;;;;4922937;29;20226;-67
2023/02/04 06:23:53;;;;;;;2.40;0.73;;;3.20;99.90;;;;;;4925972;29;20218;-67
2023/02/04 06:26:21;;;;;;;0.52;0.52;;;3.10;99.90;;;;;;4923488;29;20234;-67
2023/02/04 06:28:48;;;;;;;0.50;0.50;;;3.00;99.90;;;;;;4913860;29;20225;-66
2023/02/04 06:31:15;;;;;;;0.52;0.52;;;3.00;99.90;;;;;;4925163;29;20241;-67
2023/02/04 06:33:42;;;;;;;1.98;1.27;;;2.90;99.90;;;;;;4920325;29;20218;-66
2023/02/04 06:36:09;;;;;;;0.20;0.20;;;2.90;99.90;;;;;;4925583;29;20200;-66
2023/02/04 06:38:35;;;;;;;0.40;0.40;;;2.80;99.90;;;;;;4929564;29;20214;-67
2023/02/04 06:41:02;;;;;;;4.00;0.65;;;2.80;99.90;;;;;;4919648;29;20227;-67
2023/02/04 06:43:30;;;;;;;0.30;0.30;;;2.70;99.90;;;;;;4914493;29;20202;-67
2023/02/04 06:45:57;;;;;;;0.85;0.85;;;2.70;99.90;;;;;;4921432;29;20206;-67
2023/02/04 06:48:24;;;;;;;1.55;1.45;;;2.70;99.90;;;;;;4917829;29;20213;-68
2023/02/04 06:50:51;;;;;;;1.05;1.05;;;2.60;99.90;;;;;;4914159;29;20256;-67
2023/02/04 06:53:17;;;;;;;1.45;1.45;;;2.60;99.90;;;;;;4913229;29;20207;-69
2023/02/04 06:55:45;;;;;;;0.25;0.25;;;2.50;99.90;;;;;;4923019;29;20220;-67
2023/02/04 06:58:11;;;;;;;0.20;0.20;;;2.50;99.90;;;;;;4914494;29;20217;-68
2023/02/04 07:00:39;;;;;;;0.90;0.65;;;2.40;99.90;;;;;;4912223;29;20614;-67
2023/02/04 07:03:07;;;;;;;0.93;0.90;;;2.40;99.90;;;;;;4908833;29;20686;-68
2023/02/04 07:05:34;;;;;;;0.40;0.40;;;2.40;99.90;;;;;;4913317;29;20686;-68
2023/02/04 07:08:01;;;;;;;0.20;0.20;;;2.30;99.90;;;;;;4922308;29;20234;-67
2023/02/04 07:10:28;;;;;;;0.68;0.68;;;2.30;99.90;;;;;;4918608;29;20206;-67
2023/02/04 07:12:54;;;;;;;0.50;0.45;;;2.30;99.90;;;;;;4915083;29;20217;-68
2023/02/04 07:15:21;;;;;;;1.00;1.00;;;2.30;99.90;;;;;;4913344;29;20214;-67
2023/02/04 07:17:49;;;;;;;1.17;1.17;;;2.30;99.90;;;;;;4916109;29;20210;-67
2023/02/04 07:20:16;;;;;;;1.08;0.68;;;2.30;99.90;;;;;;4919667;29;20700;-70
2023/02/04 07:22:43;;;;;;;1.45;1.40;;;2.30;99.90;;;;;;4925296;29;20663;-67
2023/02/04 07:25:13;;;;;;;1.45;0.80;;;2.30;99.90;;;;;;4922307;29;20736;-68
2023/02/04 07:27:40;;;;;;;1.05;1.05;;;2.20;99.90;;;;;;4917356;29;20227;-68
2023/02/04 07:30:08;;;;;;;1.27;1.27;;;2.30;99.90;;;;;;4913757;29;20242;-68
2023/02/04 07:32:35;;;;;;;2.38;2.17;;;2.30;99.90;;;;;;4912393;29;20226;-68
2023/02/04 07:35:03;;;;;;;2.03;2.03;;;2.30;99.90;;;;;;4912839;29;20203;-67
2023/02/04 07:37:30;;;;;;;1.55;1.52;;;2.30;99.90;;;;;;4916551;29;20206;-68
2023/02/04 07:39:57;;;;;;;1.75;1.60;;;2.30;99.90;;;;;;4921103;29;20222;-67
2023/02/04 07:42:23;;;;;;;0.70;0.70;;;2.30;99.90;;;;;;4921083;29;20809;-68
2023/02/04 07:44:50;;;;;;;1.58;1.05;;;2.40;99.90;;;;;;4920832;29;20229;-67
2023/02/04 07:47:17;;;;;;;0.30;0.30;;;2.40;99.90;;;;;;4918586;29;20231;-67
2023/02/04 07:49:44;;;;;;;0.85;0.85;;;2.40;99.90;;;;;;4920837;29;20732;-67
2023/02/04 07:52:12;;;;;;;0.80;0.80;;;2.40;99.90;;;;;;4909398;29;20230;-68
2023/02/04 07:54:38;;;;;;;0.90;0.90;;;2.40;99.90;;;;;;4906889;29;20676;-68
2023/02/04 07:57:05;;;;;;;0.40;0.40;;;2.40;99.90;;;;;;4912268;29;20636;-67
2023/02/04 07:59:32;;;;;;;1.15;1.05;;;2.40;99.90;;;;;;4914920;29;20214;-67
2023/02/04 08:02:00;;;;;;;2.78;1.30;;;2.40;99.90;;;;;;4913791;29;20250;-67
2023/02/04 08:04:27;;;;;;;0.85;0.85;;;2.40;99.90;;;;;;4915640;29;20683;-68
2023/02/04 08:06:54;;;;;;;0.88;0.88;;;2.40;99.90;;;;;;4925559;29;20237;-68
2023/02/04 08:09:22;;;;;;;1.40;1.40;;;2.40;99.90;;;;;;4926033;29;20217;-68
2023/02/04 08:11:49;;;;;;;0.70;0.70;;;2.50;99.90;;;;;;4931372;29;20568;-67
2023/02/04 08:14:16;;;;;;;1.27;1.23;;;2.50;99.90;;;;;;4919091;29;20686;-68
2023/02/04 08:16:43;;;;;;;1.20;0.88;;;2.60;99.90;;;;;;4913782;29;20210;-68
2023/02/04 08:19:09;;;;;;;0.68;0.68;;;2.60;99.90;;;;;;4907870;29;20209;-68
2023/02/04 08:21:36;;;;;;;1.23;1.23;;;2.60;99.90;;;;;;4913402;29;20225;-67
2023/02/04 08:24:03;;;;;;;1.45;1.10;;;2.70;99.90;;;;;;4921976;29;20209;-67
2023/02/04 08:26:31;;;;;;;1.42;1.42;;;2.70;99.90;;;;;;4914044;29;20835;-68
2023/02/04 08:28:58;;;;;;;0.95;0.95;;;2.70;99.90;;;;;;4921363;29;20219;-67
2023/02/04 08:31:24;;;;;;;0.68;0.68;;;2.80;99.90;;;;;;4916646;29;20253;-68
2023/02/04 08:33:51;;;;;;;1.67;1.10;;;2.80;99.90;;;;;;4911197;29;20213;-67
2023/02/04 08:36:18;;;;;;;1.00;1.00;;;2.80;99.90;;;;;;4918210;29;20695;-68
2023/02/04 08:38:44;;;;;;;0.73;0.73;;;2.80;99.90;;;;;;4916852;29;20215;-68
2023/02/04 08:41:11;;;;;;;0.73;0.73;;;2.80;99.90;;;;;;4914833;29;20227;-68
2023/02/04 08:43:39;;;;;;;2.30;2.10;;;2.80;99.90;;;;;;4922064;29;20221;-68
2023/02/04 08:46:06;;;;;;;0.80;0.80;;;2.90;99.90;;;;;;4913231;29;21120;-68
2023/02/04 08:48:33;;;;;;;0.93;0.93;;;2.90;99.90;;;;;;4913804;29;20241;-68
2023/02/04 08:51:00;;;;;;;1.13;1.13;;;2.90;99.90;;;;;;4905528;29;20246;-67
2023/02/04 08:53:26;;;;;;;1.23;1.10;;;3.00;99.90;;;;;;4908465;29;20215;-67
2023/02/04 08:55:53;;;;;;;0.40;0.40;;;3.00;99.90;;;;;;4910890;29;20225;-68
2023/02/04 08:58:20;;;;;;;1.85;1.45;;;3.10;99.90;;;;;;4911335;29;20293;-68
2023/02/04 09:00:48;;;;;;;2.38;2.28;;;3.90;99.90;;;;;;4907137;29;20257;-67
2023/02/04 09:03:15;;;;;;;3.05;1.38;;;4.70;99.90;;;;;;4906328;29;20238;-68
2023/02/04 09:05:42;;;;;;;2.05;1.95;;;4.90;99.90;;;;;;4906442;29;20829;-68
2023/02/04 09:08:08;;;;;;;2.35;1.10;;;4.60;99.90;;;;;;4915937;29;20258;-68
2023/02/04 09:10:35;;;;;;;1.95;1.85;;;4.30;99.90;;;;;;4924254;29;20730;-68
2023/02/04 09:13:02;;;;;;;0.65;0.65;;;4.60;99.90;;;;;;4926752;29;20246;-68
2023/02/04 09:15:29;;;;;;;3.22;1.42;;;5.00;99.90;;;;;;4922982;29;20581;-68
2023/02/04 09:18:03;;;;;;;1.00;1.00;;;5.00;99.90;;;;;;4926435;29;20215;-67
2023/02/04 09:20:30;;;;;;;1.90;1.80;;;4.80;99.90;;;;;;4909617;29;20740;-68
2023/02/04 09:22:57;;;;;;;3.25;1.50;;;4.60;99.90;;;;;;4906703;29;20211;-67
2023/02/04 09:25:23;;;;;;;1.30;1.30;;;4.40;99.90;;;;;;4907048;29;20230;-67
2023/02/04 09:27:50;;;;;;;1.20;1.02;;;4.30;99.90;;;;;;4914896;29;20222;-68
2023/02/04 09:30:17;;;;;;;3.10;1.77;;;4.10;99.90;;;;;;4915024;29;20225;-67
2023/02/04 09:32:44;;;;;;;3.13;1.20;;;4.10;99.90;;;;;;4917539;29;20222;-68
2023/02/04 09:35:12;;;;;;;1.85;1.75;;;4.10;99.90;;;;;;4914361;29;20218;-67
2023/02/04 09:37:38;;;;;;;0.50;0.50;;;4.10;99.90;;;;;;4914240;29;20203;-68
2023/02/04 09:40:06;;;;;;;0.45;0.45;;;4.10;99.90;;;;;;4916104;29;20602;-68
2023/02/04 09:42:33;;;;;;;1.35;1.25;;;4.10;99.90;;;;;;4917073;29;20239;-67
2023/02/04 09:45:01;;;;;;;1.23;1.23;;;4.10;99.90;;;;;;4919368;29;20207;-69
2023/02/04 09:47:29;;;;;;;2.35;1.23;;;4.10;99.90;;;;;;4921348;29;20233;-68
2023/02/04 09:49:56;;;;;;;0.50;0.50;;;4.20;99.90;;;;;;4917157;29;20300;-68
2023/02/04 09:52:26;;;;;;;1.30;1.30;;;4.10;99.90;;;;;;4920310;29;20226;-68
2023/02/04 09:54:52;;;;;;;1.15;1.15;;;4.20;99.90;;;;;;4914493;29;20220;-70
2023/02/04 09:57:20;;;;;;;0.93;0.82;;;4.20;99.90;;;;;;4932871;29;20221;-68
2023/02/04 09:59:47;;;;;;;1.30;1.20;;;4.20;99.90;;;;;;4923415;29;20215;-68
2023/02/04 10:02:21;;;;;;;0.30;0.30;;;4.30;99.90;;;;;;4913550;29;20238;-68
2023/02/04 10:04:49;;;;;;;0.70;0.70;;;4.30;99.90;;;;;;4911380;29;20206;-67
2023/02/04 10:07:21;;;;;;;0.50;0.50;;;4.30;99.90;;;;;;4931879;29;20248;-67
2023/02/04 10:09:49;;;;;;;0.20;0.20;;;4.30;99.90;;;;;;4921997;29;20211;-68
2023/02/04 10:12:16;;;;;;;0.80;0.80;;;4.30;99.90;;;;;;4914578;29;20231;-68
2023/02/04 10:14:43;;;;;;;0.20;0.20;;;4.30;99.90;;;;;;4915446;29;20290;-67
2023/02/04 10:17:11;;;;;;;0.20;0.20;;;4.30;99.90;;;;;;4927618;29;20221;-68
2023/02/04 10:19:39;;;;;;;0.43;0.43;;;4.30;99.90;;;;;;4915675;29;20215;-68
2023/02/04 10:22:16;;;;;;;0.50;0.50;;;4.40;99.90;;;;;;4917216;29;20243;-68
2023/02/04 10:24:43;;;;;;;0.25;0.25;;;4.50;99.90;;;;;;4912766;29;20273;-67
2023/02/04 10:27:14;;;;;;;1.27;0.73;;;4.50;99.90;;;;;;4920765;29;20226;-67
2023/02/04 10:29:42;;;;;;;1.13;1.02;;;4.60;99.90;;;;;;4923544;29;20212;-67
2023/02/04 10:32:27;;;;;;;0.75;0.70;;;4.60;99.90;;;;;;4924333;29;20228;-68
2023/02/04 10:34:58;;;;;;;0.93;0.85;;;4.70;99.90;;;;;;4904152;29;20210;-66
2023/02/04 10:37:25;;;;;;;0.73;0.73;;;4.70;99.90;;;;;;4912377;29;20250;-68
2023/02/04 10:39:52;;;;;;;1.02;0.75;;;4.70;99.90;;;;;;4908274;29;20231;-67
2023/02/04 10:42:23;;;;;;;0.30;0.30;;;4.80;99.90;;;;;;4905010;29;20624;-68
2023/02/04 10:44:50;;;;;;;0.40;0.40;;;4.80;99.90;;;;;;4903837;29;20212;-68
2023/02/04 10:47:19;;;;;;;0.75;0.60;;;4.80;99.90;;;;;;4913649;29;20603;-68
2023/02/04 10:49:56;;;;;;;0.40;0.40;;;4.90;99.90;;;;;;4918519;29;20211;-68
2023/02/04 10:52:28;;;;;;;0.65;0.65;;;4.90;99.90;;;;;;4918700;29;20243;-68
2023/02/04 10:54:55;;;;;;;0.50;0.50;;;5.00;99.90;;;;;;4914504;29;20219;-68
2023/02/04 10:57:26;;;;;;;0.43;0.43;;;5.10;99.90;;;;;;4923237;29;20209;-68
2023/02/04 10:59:56;;;;;;;0.30;0.30;;;5.20;99.90;;;;;;4926418;29;20212;-68
2023/02/04 11:02:36;;;;;;;0.40;0.40;;;5.20;99.90;;;;;;4923777;29;20254;-69
2023/02/04 11:05:10;;;;;;;0.20;0.20;;;5.30;99.90;;;;;;4908372;29;20219;-68
2023/02/04 11:07:38;;;;;;;0.30;0.30;;;5.40;99.90;;;;;;4905738;29;20263;-68
2023/02/04 11:10:05;;;;;;;0.55;0.55;;;5.50;99.90;;;;;;4907345;29;20238;-68
2023/02/04 11:12:41;;;;;;;0.20;0.20;;;5.60;99.90;;;;;;4903876;29;20250;-68
2023/02/04 11:15:44;;;;;;;0.73;0.73;;;5.60;99.90;;;;;;4910221;29;20211;-68
2023/02/04 11:18:25;;;;;;;0.30;0.30;;;5.70;99.90;;;;;;4900752;29;20204;-68
2023/02/04 11:20:55;;;;;;;1.35;0.70;;;5.90;99.90;;;;;;4902678;29;20723;-68
2023/02/04 11:23:36;;;;;;;1.45;0.98;;;6.00;99.90;;;;;;4903638;29;20209;-68
2023/02/04 11:26:17;;;;;;;0.20;0.20;;;6.00;99.90;;;;;;4903195;29;20222;-68
2023/02/04 11:29:08;;;;;;;0.50;0.50;;;6.10;99.90;;;;;;4917083;29;20239;-68
2023/02/04 11:31:56;;;;;;;0.20;0.20;;;6.20;99.90;;;;;;4914753;29;20240;-69
2023/02/04 11:34:46;;;;;;;0.50;0.50;;;6.30;99.90;;;;;;4911454;29;20219;-68
2023/02/04 11:37:33;;;;;;;0.50;0.50;;;6.30;99.90;;;;;;4917204;29;20212;-68
2023/02/04 11:40:01;;;;;;;0.85;0.38;;;6.30;99.90;;;;;;4922081;29;20209;-68
2023/02/04 11:42:39;;;;;;;0.68;0.68;;;6.40;99.90;;;;;;4920449;29;20264;-66
2023/02/04 11:45:15;;;;;;;0.30;0.30;;;6.50;99.90;;;;;;4913905;29;20587;-66
2023/02/04 11:47:42;;;;;;;2.33;0.50;;;6.50;99.90;;;;;;4909280;29;20213;-67
2023/02/04 11:50:23;;;;;;;0.20;0.20;;;6.50;99.90;;;;;;4916282;29;20223;-67
2023/02/04 11:52:50;;;;;;;0.43;0.43;;;6.30;99.90;;;;;;4909016;29;20217;-67
2023/02/04 11:55:18;;;;;;;0.20;0.20;;;6.20;99.90;;;;;;4912084;29;20219;-67
2023/02/04 11:57:46;;;;;;;0.47;0.47;;;6.20;99.90;;;;;;4904114;29;20517;-67
2023/02/04 12:00:16;;;;;;;0.52;0.52;;;6.10;99.90;;;;;;4905589;29;20219;-67
2023/02/04 12:02:46;;;;;;;0.75;0.75;;;6.00;99.90;;;;;;4905556;29;20203;-67
2023/02/04 12:05:16;;;;;;;0.68;0.68;;;5.80;99.90;;;;;;4904997;29;20699;-67
2023/02/04 12:07:44;;;;;;;0.47;0.47;;;5.70;99.90;;;;;;4905220;29;20223;-67
2023/02/04 12:10:13;;;;;;;1.00;0.77;;;5.70;99.90;;;;;;4904918;29;20302;-67
2023/02/04 12:12:43;;;;;;;1.00;1.00;;;5.60;99.90;;;;;;4905369;29;20227;-67
2023/02/04 12:15:16;;;;;;;0.20;0.20;;;5.70;99.90;;;;;;4921413;29;20286;-67
2023/02/04 12:17:45;;;;;;;0.20;0.20;;;5.70;99.90;;;;;;4915813;29;20212;-67
2023/02/04 12:20:13;;;;;;;1.17;0.50;;;5.80;99.90;;;;;;4911459;29;20205;-67
2023/02/04 12:22:39;;;;;;;0.20;0.20;;;5.80;99.90;;;;;;4905742;29;20549;-67
2023/02/04 12:25:07;;;;;;;0.47;0.47;;;5.90;99.90;;;;;;4916171;29;20249;-68
2023/02/04 12:27:34;;;;;;;0.50;0.50;;;5.90;99.90;;;;;;4912904;29;20215;-66
2023/02/04 12:30:01;;;;;;;0.20;0.20;;;6.00;99.90;;;;;;4915154;29;20213;-69
2023/02/04 12:32:29;;;;;;;0.20;0.20;;;6.10;99.90;;;;;;4904326;29;20236;-68
2023/02/04 12:34:56;;;;;;;0.30;0.30;;;6.20;99.90;;;;;;4906336;29;20847;-68
2023/02/04 12:37:23;;;;;;;0.30;0.30;;;6.30;99.90;;;;;;4904974;29;20209;-66
2023/02/04 12:39:49;;;;;;;0.30;0.30;;;6.30;99.90;;;;;;4903298;29;20576;-68
2023/02/04 12:42:16;;;;;;;0.20;0.20;;;6.40;99.90;;;;;;4904214;29;20578;-68
2023/02/04 12:44:43;;;;;;;0.28;0.28;;;6.40;99.90;;;;;;4904909;29;20208;-67
2023/02/04 12:47:10;;;;;;;0.68;0.68;;;6.40;99.90;;;;;;4908356;29;20308;-68
2023/02/04 12:49:38;;;;;;;0.20;0.20;;;6.50;99.90;;;;;;4921761;29;20231;-67
2023/02/04 12:52:05;;;;;;;0.50;0.50;;;6.60;99.90;;;;;;4914081;29;20239;-67
2023/02/04 12:54:32;;;;;;;1.40;1.33;;;6.50;99.90;;;;;;4910141;29;20224;-68
2023/02/04 12:56:58;;;;;;;1.13;1.02;;;6.40;99.90;;;;;;4913459;29;20216;-67
2023/02/04 12:59:26;;;;;;;1.85;0.70;;;6.40;99.90;;;;;;4912526;29;20232;-67
2023/02/04 13:01:52;;;;;;;1.88;0.93;;;6.40;99.90;;;;;;4913642;29;20595;-68
2023/02/04 13:04:19;;;;;;;0.60;0.60;;;6.30;99.90;;;;;;4918068;29;20207;-67
2023/02/04 13:06:48;;;;;;;0.20;0.20;;;6.30;99.90;;;;;;4912612;29;20309;-67
2023/02/04 13:09:15;;;;;;;0.30;0.30;;;6.20;99.90;;;;;;4903035;29;20878;-66
2023/02/04 13:11:42;;;;;;;0.43;0.43;;;6.10;99.90;;;;;;4904004;29;20237;-66
2023/02/04 13:14:08;;;;;;;1.95;0.50;;;6.00;99.90;;;;;;4903335;29;20208;-67
2023/02/04 13:16:35;;;;;;;1.17;1.08;;;5.90;99.90;;;;;;4903997;29;20230;-69
2023/02/04 13:19:02;;;;;;;0.40;0.40;;;5.80;99.90;;;;;;4902470;29;20404;-67
2023/02/04 13:21:30;;;;;;;0.50;0.50;;;5.60;99.90;;;;;;4902448;29;20231;-67
2023/02/04 13:23:58;;;;;;;0.40;0.40;;;5.60;99.90;;;;;;4901286;29;20308;-67
2023/02/04 13:26:25;;;;;;;0.20;0.20;;;5.50;99.90;;;;;;4902678;29;20219;-66
2023/02/04 13:28:52;;;;;;;0.35;0.35;;;5.50;99.90;;;;;;4903268;29;20232;-67
2023/02/04 13:31:18;;;;;;;1.17;1.00;;;5.50;99.90;;;;;;4907018;29;20474;-67
2023/02/04 13:33:45;;;;;;;0.38;0.38;;;5.40;99.90;;;;;;4904329;29;20593;-68
2023/02/04 13:36:12;;;;;;;0.40;0.40;;;5.40;99.90;;;;;;4903545;29;20205;-66
2023/02/04 13:38:39;;;;;;;0.63;0.63;;;5.40;99.90;;;;;;4904339;29;20219;-67
2023/02/04 13:41:07;;;;;;;2.33;1.67;;;5.40;99.90;;;;;;4911138;29;20601;-67
2023/02/04 13:43:33;;;;;;;0.40;0.40;;;5.30;99.90;;;;;;4912881;29;20204;-68
2023/02/04 13:46:01;;;;;;;0.82;0.82;;;5.30;99.90;;;;;;4919682;29;20212;-67
2023/02/04 13:48:28;;;;;;;0.20;0.20;;;5.30;99.90;;;;;;4932347;29;20275;-67
2023/02/04 13:50:55;;;;;;;0.20;0.20;;;5.30;99.90;;;;;;4916255;29;20232;-67
2023/02/04 13:53:22;;;;;;;0.63;0.60;;;5.30;99.90;;;;;;4906922;29;20566;-67
2023/02/04 13:55:48;;;;;;;0.70;0.70;;;5.30;99.90;;;;;;4906018;29;20220;-67
2023/02/04 13:58:17;;;;;;;0.20;0.20;;;5.30;99.90;;;;;;4912714;29;20311;-67
2023/02/04 14:00:43;;;;;;;0.70;0.70;;;5.30;99.90;;;;;;4915889;29;20243;-68
2023/02/04 14:03:10;;;;;;;0.50;0.50;;;5.30;99.90;;;;;;4930226;29;20246;-67
2023/02/04 14:05:37;;;;;;;0.20;0.20;;;5.30;99.90;;;;;;4918814;29;20219;-67
2023/02/04 14:08:04;;;;;;;0.38;0.38;;;5.30;99.90;;;;;;4921841;29;20216;-68
2023/02/04 14:10:30;;;;;;;0.20;0.20;;;5.30;99.90;;;;;;4920555;29;20909;-67
2023/02/04 14:12:57;;;;;;;0.85;0.85;;;5.20;99.90;;;;;;4915998;29;20215;-67
2023/02/04 14:15:25;;;;;;;0.63;0.63;;;5.20;99.90;;;;;;4915145;29;20207;-67
2023/02/04 14:17:52;;;;;;;0.90;0.32;;;5.20;99.90;;;;;;4931578;29;20211;-68
2023/02/04 14:20:19;;;;;;;1.05;1.05;;;5.30;99.90;;;;;;4924378;29;20728;-67
2023/02/04 14:22:45;;;;;;;0.20;0.20;;;5.30;99.90;;;;;;4924610;29;20220;-67
2023/02/04 14:25:12;;;;;;;0.30;0.30;;;5.30;99.90;;;;;;4922814;29;20222;-67
2023/02/04 14:27:40;;;;;;;0.63;0.63;;;5.30;99.90;;;;;;4916822;29;20210;-68
2023/02/04 14:30:15;;;;;;;0.20;0.20;;;5.20;99.90;;;;;;4914535;29;20243;-68
2023/02/04 14:32:43;;;;;;;0.38;0.20;;;5.20;99.90;;;;;;4911905;29;20211;-68
2023/02/04 14:35:10;;;;;;;0.10;0.10;;;5.20;99.90;;;;;;4917898;29;20215;-68
2023/02/04 14:37:37;;;;;;;0.30;0.30;;;5.10;99.90;;;;;;4917211;29;20219;-68
2023/02/04 14:40:04;;;;;;;0.10;0.10;;;5.10;99.90;;;;;;4917588;29;20200;-68
2023/02/04 14:42:31;;;;;;;0.75;0.60;;;5.20;99.90;;;;;;4927092;29;20719;-68
2023/02/04 14:44:58;;;;;;;0.52;0.52;;;5.00;99.90;;;;;;4919697;29;20218;-68
2023/02/04 14:47:24;;;;;;;0.35;0.35;;;5.00;99.90;;;;;;4916586;29;20217;-68
2023/02/04 14:49:53;;;;;;;0.47;0.47;;;5.00;99.90;;;;;;4921816;29;20239;-68
2023/02/04 14:52:19;;;;;;;0.60;0.60;;;5.00;99.90;;;;;;4931463;29;20223;-68
2023/02/04 14:54:46;;;;;;;2.15;0.65;;;4.90;99.90;;;;;;4926661;29;20286;-67
2023/02/04 14:57:13;;;;;;;1.48;0.30;;;4.90;99.90;;;;;;4917369;29;20306;-68
2023/02/04 14:59:40;;;;;;;2.42;0.75;;;4.80;99.90;;;;;;4914235;29;20199;-68
2023/02/04 15:02:07;;;;;;;1.02;0.93;;;4.80;99.90;;;;;;4913510;29;20247;-68
2023/02/04 15:04:34;;;;;;;0.20;0.20;;;4.80;99.90;;;;;;4910932;29;20217;-67
2023/02/04 15:07:02;;;;;;;0.20;0.20;;;4.80;99.90;;;;;;4926617;29;20210;-68
2023/02/04 15:09:29;;;;;;;0.22;0.22;;;4.70;99.90;;;;;;4921359;29;20235;-68
2023/02/04 15:11:56;;;;;;;1.20;0.70;;;4.60;99.90;;;;;;4915345;29;20257;-68
2023/02/04 15:14:23;;;;;;;0.20;0.20;;;4.60;99.90;;;;;;4923783;29;20211;-67
2023/02/04 15:16:50;;;;;;;0.20;0.20;;;4.60;99.90;;;;;;4931487;29;20210;-69
2023/02/04 15:19:18;;;;;;;0.30;0.30;;;4.50;99.90;;;;;;4916254;29;20242;-68
2023/02/04 15:21:45;;;;;;;1.00;1.00;;;4.50;99.90;;;;;;4912990;29;20675;-68
2023/02/04 15:24:13;;;;;;;0.32;0.32;;;4.40;99.90;;;;;;4912783;29;20668;-68
2023/02/04 15:26:40;;;;;;;0.20;0.20;;;4.40;99.90;;;;;;4913376;29;20223;-68
2023/02/04 15:29:07;;;;;;;0.52;0.52;;;4.30;99.90;;;;;;4911871;29;20286;-68
2023/02/04 15:31:33;;;;;;;0.20;0.20;;;4.30;99.90;;;;;;4914303;29;20256;-68
2023/02/04 15:34:00;;;;;;;0.30;0.30;;;4.30;99.90;;;;;;4903989;29;20566;-67
2023/02/04 15:36:27;;;;;;;0.25;0.25;;;4.20;99.90;;;;;;4909735;29;20217;-67
2023/02/04 15:38:54;;;;;;;0.20;0.20;;;4.20;99.90;;;;;;4905007;29;20218;-67
2023/02/04 15:41:22;;;;;;;1.65;0.90;;;4.10;99.90;;;;;;4903331;29;20235;-68
2023/02/04 15:43:49;;;;;;;0.35;0.35;;;3.80;99.90;;;;;;4904753;29;20262;-68
2023/02/04 15:46:16;;;;;;;0.20;0.20;;;4.00;99.90;;;;;;4904473;29;20214;-67
2023/02/04 15:48:43;;;;;;;0.50;0.50;;;4.00;99.90;;;;;;4903443;29;20310;-67
2023/02/04 15:51:09;;;;;;;0.55;0.55;;;4.00;99.90;;;;;;4906230;29;20255;-67
2023/02/04 15:53:36;;;;;;;0.88;0.55;;;3.90;99.90;;;;;;4904165;29;20211;-67
2023/02/04 15:56:03;;;;;;;1.50;1.50;;;3.90;99.90;;;;;;4904548;29;20688;-67
2023/02/04 15:58:31;;;;;;;0.70;0.70;;;4.50;99.90;;;;;;4911291;29;20210;-67
2023/02/04 16:00:58;;;;;;;2.45;2.35;;;3.80;99.90;;;;;;4913855;29;20243;-67
2023/02/04 16:03:25;;;;;;;2.25;2.15;;;3.80;99.90;;;;;;4904674;29;20295;-69
2023/02/04 16:05:54;;;;;;;3.15;1.48;;;3.70;99.90;;;;;;4902561;29;20203;-68
2023/02/04 16:08:21;;;;;;;0.82;0.82;;;3.70;99.90;;;;;;4903506;29;20215;-67
2023/02/04 16:10:47;;;;;;;1.50;1.40;;;3.70;99.90;;;;;;4903010;29;20234;-68
2023/02/04 16:13:14;;;;;;;1.15;1.15;;;3.60;99.90;;;;;;4904327;29;20215;-68
2023/02/04 16:15:42;;;;;;;0.45;0.45;;;3.60;99.90;;;;;;4903318;29;20240;-68
2023/02/04 16:18:09;;;;;;;3.80;1.42;;;3.60;99.90;;;;;;4906472;29;20207;-68
2023/02/04 16:20:36;;;;;;;3.05;2.85;;;3.50;99.90;;;;;;4919870;29;20301;-67
2023/02/04 16:23:05;;;;;;;1.30;1.30;;;3.50;99.90;;;;;;4904074;29;20219;-67
2023/02/04 16:25:32;;;;;;;1.00;1.00;;;3.50;99.90;;;;;;4903801;29;20215;-68
2023/02/04 16:27:59;;;;;;;2.25;1.73;;;3.40;99.90;;;;;;4904663;29;20215;-68
2023/02/04 16:30:26;;;;;;;3.15;1.50;;;3.40;99.90;;;;;;4901574;29;20246;-68
2023/02/04 16:32:54;;;;;;;1.15;1.15;;;3.40;99.90;;;;;;4910642;29;20214;-68
2023/02/04 16:35:21;;;;;;;1.52;1.52;;;3.40;99.90;;;;;;4919905;29;20222;-68
2023/02/04 16:37:48;;;;;;;1.27;1.17;;;3.40;99.90;;;;;;4906342;29;20242;-68
2023/02/04 16:40:15;;;;;;;2.67;1.92;;;3.40;99.90;;;;;;4906894;29;20622;-68
2023/02/04 16:42:42;;;;;;;4.80;2.83;;;3.40;99.90;;;;;;4918661;29;20657;-68
2023/02/04 16:45:09;;;;;;;2.83;1.75;;;3.30;99.90;;;;;;4912243;29;20214;-67
2023/02/04 16:47:36;;;;;;;2.88;2.78;;;3.30;99.90;;;;;;4914004;29;20309;-68
2023/02/04 16:50:04;;;;;;;2.35;2.15;;;3.30;99.90;;;;;;4905362;29;20301;-71
2023/02/04 16:52:34;;;;;;;3.28;3.28;;;3.30;99.90;;;;;;4909473;29;20242;-71
2023/02/04 16:55:01;;;;;;;2.35;2.25;;;3.30;99.90;;;;;;4904475;29;20258;-68
2023/02/04 16:57:28;;;;;;;3.05;2.15;;;3.30;99.90;;;;;;4904861;29;20704;-68
2023/02/04 16:59:55;;;;;;;1.45;1.45;;;3.30;99.90;;;;;;4904408;29;20217;-68
2023/02/04 17:02:23;;;;;;;1.40;1.38;;;3.30;99.90;;;;;;4904463;29;20263;-68
2023/02/04 17:04:49;;;;;;;2.38;2.25;;;3.20;99.90;;;;;;4902870;29;20207;-68
2023/02/04 17:07:17;;;;;;;3.20;2.00;;;3.20;99.90;;;;;;4904289;29;20305;-68
2023/02/04 17:09:44;;;;;;;3.08;2.28;;;3.10;99.90;;;;;;4905545;29;20235;-67
2023/02/04 17:12:11;;;;;;;2.03;1.92;;;3.10;99.90;;;;;;4903787;29;20227;-69
2023/02/04 17:14:39;;;;;;;0.60;0.60;;;3.10;99.90;;;;;;4906982;29;20219;-68
2023/02/04 17:17:06;;;;;;;2.50;2.03;;;3.10;99.90;;;;;;4906414;29;20237;-67
2023/02/04 17:19:33;;;;;;;6.55;4.18;;;3.10;99.90;;;;;;4905951;29;20203;-67
2023/02/04 17:22:00;;;;;;;3.47;3.22;;;3.00;99.90;;;;;;4911223;29;20242;-69
2023/02/04 17:24:28;;;;;;;4.05;3.53;;;3.00;99.90;;;;;;4906681;29;20224;-68
2023/02/04 17:26:55;;;;;;;1.15;1.15;;;3.00;99.90;;;;;;4906369;29;20303;-69
2023/02/04 17:29:23;;;;;;;2.25;2.15;;;3.00;99.90;;;;;;4906958;29;20211;-68
2023/02/04 17:31:51;;;;;;;11.85;2.50;;;3.00;99.90;;;;;;4916149;29;20301;-68
2023/02/04 17:34:18;;;;;;;4.45;2.55;;;2.90;99.90;;;;;;4905129;29;20211;-67
2023/02/04 17:36:44;;;;;;;1.77;1.58;;;2.90;99.90;;;;;;4910106;29;20525;-68
2023/02/04 17:39:11;;;;;;;2.20;2.10;;;2.90;99.90;;;;;;4937003;23;20226;-70
2023/02/04 17:41:39;;;;;;;1.95;1.85;;;2.90;99.90;;;;;;4936768;28;20226;-71
2023/02/04 17:44:06;;;;;;;3.15;2.58;;;2.90;99.90;;;;;;4935318;29;20581;-72
2023/02/04 17:46:33;;;;;;;3.85;2.25;;;2.80;99.90;;;;;;4936014;28;20237;-69
2023/02/04 17:49:00;;;;;;;2.38;2.38;;;2.80;99.90;;;;;;4932042;29;20645;-69
2023/02/04 17:51:26;;;;;;;2.88;2.72;;;2.80;99.90;;;;;;4931929;29;20237;-69
2023/02/04 17:53:53;;;;;;;1.88;1.80;;;2.80;99.90;;;;;;4933513;29;20207;-69
2023/02/04 17:56:20;;;;;;;4.13;2.38;;;2.70;99.90;;;;;;4934219;29;20206;-69
2023/02/04 17:58:48;;;;;;;5.82;2.10;;;2.70;99.90;;;;;;4936919;28;20226;-69
2023/02/04 18:01:17;;;;;;;3.90;3.70;;;2.70;99.90;;;;;;4926741;29;20213;-70